Time;durP1;ratioP1;P1;durP2;ratioP2;P2;SDS_P1;SDS_P2;PMS_P1;PMS_P2;Temp;Humidity;BMP_temperature;BMP_pressure;BME280_temperature;BME280_humidity;BME280_pressure;Samples;Min_cycle;Max_cycle;Signal;HPM_P1;HPM_P2
2022/01/25 00:08:49;;;;;;;;;;;11.40;60.30;;;;;;5029277;28;20391;-91
2022/01/25 00:25:07;;;;;;;;;;;11.50;60.90;;;;;;5017306;28;19987;-91
2022/01/25 00:27:52;;;;;;;;;;;11.50;61.00;;;;;;5016376;28;19973;-92
2022/01/25 00:30:32;;;;;;;;;;;11.50;60.90;;;;;;5022945;28;19929;-91
2022/01/25 00:33:00;;;;;;;;;;;11.60;60.70;;;;;;4998239;28;20429;-92
2022/01/25 00:35:26;;;;;;;;;;;11.60;60.80;;;;;;5009419;28;19921;-91
2022/01/25 00:37:52;;;;;;;;;;;11.60;60.80;;;;;;5017077;28;19909;-92
2022/01/25 00:40:17;;;;;;;;;;;11.60;60.80;;;;;;5006969;28;19970;-92
2022/01/25 00:42:43;;;;;;;;;;;11.70;60.80;;;;;;5012791;28;19948;-92
2022/01/25 00:45:10;;;;;;;;;;;11.70;60.50;;;;;;5016905;28;19917;-91
2022/01/25 00:47:37;;;;;;;;;;;11.70;60.40;;;;;;5028981;28;19918;-91
2022/01/25 00:50:03;;;;;;;;;;;11.70;60.40;;;;;;5005006;28;19930;-92
2022/01/25 00:55:07;;;;;;;;;;;11.70;60.50;;;;;;5035764;28;20453;-92
2022/01/25 00:57:32;;;;;;;;;;;11.70;60.40;;;;;;5025139;28;20353;-92
2022/01/25 00:59:58;;;;;;;;;;;11.70;60.30;;;;;;5033146;28;19922;-92
2022/01/25 01:02:23;;;;;;;;;;;11.60;60.30;;;;;;5026960;28;19918;-92
2022/01/25 01:04:49;;;;;;;;;;;11.60;60.30;;;;;;5006777;28;19938;-92
2022/01/25 01:07:16;;;;;;;;;;;11.60;60.20;;;;;;5016106;28;19935;-92
2022/01/25 01:09:45;;;;;;;;;;;11.60;60.20;;;;;;5015727;28;19922;-92
2022/01/25 01:12:18;;;;;;;;;;;11.60;60.40;;;;;;5021916;28;19929;-91
2022/01/25 01:28:48;;;;;;;;;;;11.60;60.40;;;;;;5027978;28;20365;-92
2022/01/25 01:31:35;;;;;;;;;;;11.50;60.40;;;;;;5030769;28;19995;-92
2022/01/25 01:34:26;;;;;;;;;;;11.50;60.50;;;;;;5048060;28;19936;-91
2022/01/25 01:44:52;;;;;;;;;;;11.50;59.70;;;;;;5037033;28;19928;-92
2022/01/25 01:47:26;;;;;;;;;;;11.50;59.80;;;;;;5010329;28;20058;-92
2022/01/25 01:49:52;;;;;;;;;;;11.40;59.60;;;;;;5013127;28;19929;-92
2022/01/25 01:52:17;;;;;;;;;;;11.40;59.40;;;;;;5030184;28;19913;-91
2022/01/25 01:54:43;;;;;;;;;;;11.40;60.00;;;;;;5025024;28;19925;-92
2022/01/25 01:57:09;;;;;;;;;;;11.30;60.40;;;;;;5026238;28;19920;-92
2022/01/25 01:59:34;;;;;;;;;;;11.30;60.50;;;;;;5020740;28;20020;-92
2022/01/25 02:02:00;;;;;;;;;;;11.40;60.60;;;;;;5026713;28;19925;-90
2022/01/25 02:04:26;;;;;;;;;;;11.40;60.50;;;;;;5018755;28;20004;-92
2022/01/25 02:06:52;;;;;;;;;;;11.40;60.30;;;;;;5027751;28;19917;-92
2022/01/25 02:09:17;;;;;;;;;;;11.40;60.40;;;;;;4998296;28;19917;-91
2022/01/25 02:11:43;;;;;;;;;;;11.40;60.50;;;;;;5010224;28;19946;-91
2022/01/25 02:14:12;;;;;;;;;;;11.50;60.50;;;;;;5015727;28;19943;-91
2022/01/25 02:17:01;;;;;;;;;;;11.50;60.30;;;;;;5019028;28;20019;-90
2022/01/25 02:25:06;;;;;;;;;;;11.50;60.70;;;;;;5050990;27;19920;-90
2022/01/25 02:27:32;;;;;;;;;;;11.50;60.60;;;;;;5027726;28;19913;-90
2022/01/25 02:29:57;;;;;;;;;;;11.50;60.50;;;;;;5019637;28;20341;-91
2022/01/25 02:32:23;;;;;;;;;;;11.50;60.30;;;;;;5020115;28;20353;-91
2022/01/25 02:34:48;;;;;;;;;;;11.50;60.30;;;;;;4997388;28;19943;-91
2022/01/25 02:37:15;;;;;;;;;;;11.50;60.40;;;;;;5021215;28;19998;-90
2022/01/25 02:39:44;;;;;;;;;;;11.50;60.40;;;;;;5035338;28;19952;-91
2022/01/25 02:42:11;;;;;;;;;;;11.50;60.40;;;;;;5053803;28;19921;-91
2022/01/25 02:44:37;;;;;;;;;;;11.50;60.40;;;;;;5040929;28;19924;-92
2022/01/25 02:49:29;;;;;;;;;;;11.50;60.50;;;;;;5047314;28;19948;-90
2022/01/25 02:51:57;;;;;;;;;;;11.60;60.50;;;;;;5115787;27;19919;-91
2022/01/25 02:54:23;;;;;;;;;;;11.60;60.50;;;;;;5059844;28;20429;-91
2022/01/25 02:56:49;;;;;;;;;;;11.60;60.40;;;;;;5014333;28;19921;-90
2022/01/25 02:59:17;;;;;;;;;;;11.60;60.30;;;;;;5011815;28;19940;-91
2022/01/25 03:01:43;;;;;;;;;;;11.60;60.10;;;;;;5024917;28;19987;-91
2022/01/25 03:04:09;;;;;;;;;;;11.50;59.60;;;;;;5015702;28;19918;-91
2022/01/25 03:06:34;;;;;;;;;;;11.50;59.80;;;;;;5020444;28;19928;-91
2022/01/25 03:09:00;;;;;;;;;;;11.40;60.00;;;;;;5005009;28;19918;-91
2022/01/25 03:11:25;;;;;;;;;;;11.50;60.20;;;;;;5008527;28;19922;-91
2022/01/25 03:13:54;;;;;;;;;;;11.50;60.40;;;;;;4995066;28;19918;-91
2022/01/25 03:16:43;;;;;;;;;;;11.50;60.40;;;;;;5004345;28;19921;-90
2022/01/25 03:21:57;;;;;;;;;;;11.50;60.50;;;;;;5021054;28;19964;-91
2022/01/25 03:24:24;;;;;;;;;;;11.50;60.50;;;;;;4995811;28;19921;-90
2022/01/25 03:26:49;;;;;;;;;;;11.50;60.50;;;;;;5028227;28;19944;-91
2022/01/25 03:29:15;;;;;;;;;;;11.50;60.50;;;;;;4999754;28;19924;-91
2022/01/25 03:31:40;;;;;;;;;;;11.50;60.50;;;;;;5027593;28;19931;-91
2022/01/25 03:34:06;;;;;;;;;;;11.50;60.30;;;;;;5034915;28;19979;-91
2022/01/25 03:36:31;;;;;;;;;;;11.50;60.30;;;;;;5051385;28;19946;-91
2022/01/25 03:38:57;;;;;;;;;;;11.50;60.40;;;;;;5007367;28;19961;-90
2022/01/25 03:41:23;;;;;;;;;;;11.50;60.40;;;;;;5022516;28;19925;-91
2022/01/25 03:43:53;;;;;;;;;;;11.50;60.30;;;;;;5014693;28;20360;-91
2022/01/25 03:47:06;;;;;;;;;;;11.50;59.90;;;;;;5017853;28;19953;-90
2022/01/25 03:51:52;;;;;;;;;;;11.40;59.70;;;;;;5027773;28;20020;-91
2022/01/25 03:54:18;;;;;;;;;;;11.40;60.20;;;;;;4997691;28;19961;-91
2022/01/25 03:56:44;;;;;;;;;;;11.30;60.40;;;;;;5022945;28;19913;-91
2022/01/25 03:59:09;;;;;;;;;;;11.40;60.50;;;;;;5027321;28;19948;-91
2022/01/25 04:01:36;;;;;;;;;;;11.40;60.60;;;;;;5032122;28;20432;-91
2022/01/25 04:04:12;;;;;;;;;;;11.40;60.50;;;;;;5007400;28;20310;-91
2022/01/25 04:06:38;;;;;;;;;;;11.40;60.40;;;;;;5021951;28;20391;-91
2022/01/25 04:09:07;;;;;;;;;;;11.40;60.50;;;;;;4996922;28;19918;-91
2022/01/25 04:11:33;;;;;;;;;;;11.40;60.50;;;;;;5028016;28;19908;-91
2022/01/25 04:13:59;;;;;;;;;;;11.50;60.50;;;;;;5024939;28;19997;-91
2022/01/25 04:16:30;;;;;;;;;;;11.50;60.60;;;;;;5010022;28;19932;-91
2022/01/25 04:19:06;;;;;;;;;;;11.50;60.30;;;;;;5029438;28;19918;-91
2022/01/25 04:26:45;;;;;;;;;;;11.40;60.20;;;;;;5028789;28;19924;-91
2022/01/25 04:29:10;;;;;;;;;;;11.40;60.40;;;;;;5015082;28;19925;-91
2022/01/25 04:31:37;;;;;;;;;;;11.40;60.50;;;;;;5022319;28;19963;-91
2022/01/25 04:34:13;;;;;;;;;;;11.40;60.50;;;;;;4997001;28;19946;-91
2022/01/25 04:50:05;;;;;;;;;;;11.50;60.70;;;;;;5046329;28;19971;-91
2022/01/25 04:52:37;;;;;;;;;;;11.50;60.70;;;;;;5015725;28;19921;-91
2022/01/25 04:55:26;;;;;;;;;;;11.50;60.60;;;;;;4999335;28;19924;-91
2022/01/25 04:57:59;;;;;;;;;;;11.60;60.50;;;;;;5039764;28;19925;-91
2022/01/25 05:00:25;;;;;;;;;;;11.50;60.50;;;;;;5034511;28;19945;-90
2022/01/25 05:02:59;;;;;;;;;;;11.60;60.40;;;;;;4997850;28;19925;-89
2022/01/25 05:05:36;;;;;;;;;;;11.50;60.30;;;;;;4997160;28;19960;-90
2022/01/25 05:08:15;;;;;;;;;;;11.50;60.20;;;;;;5009507;28;20020;-91
2022/01/25 05:10:49;;;;;;;;;;;11.50;60.20;;;;;;5023877;28;19975;-91
2022/01/25 05:13:39;;;;;;;;;;;11.50;60.00;;;;;;5014075;28;19925;-90
2022/01/25 05:18:47;;;;;;;;;;;11.50;60.00;;;;;;5026744;28;20014;-91
2022/01/25 05:23:57;;;;;;;;;;;11.40;59.90;;;;;;5028202;28;20421;-91
2022/01/25 05:26:24;;;;;;;;;;;11.30;60.00;;;;;;5036967;28;19925;-91
2022/01/25 05:28:49;;;;;;;;;;;11.40;60.10;;;;;;5035523;28;19913;-91
2022/01/25 05:31:15;;;;;;;;;;;11.40;60.00;;;;;;5023920;28;19940;-91
2022/01/25 05:33:40;;;;;;;;;;;11.40;60.10;;;;;;5015042;28;19925;-92
2022/01/25 05:36:06;;;;;;;;;;;11.40;60.10;;;;;;5016027;28;20448;-91
2022/01/25 05:38:31;;;;;;;;;;;11.30;60.20;;;;;;4996308;28;19918;-91
2022/01/25 05:41:00;;;;;;;;;;;11.30;60.10;;;;;;5018983;28;19909;-92
2022/01/25 05:48:25;;;;;;;;;;;11.30;60.10;;;;;;5053209;28;19927;-91
2022/01/25 05:50:51;;;;;;;;;;;11.30;59.60;;;;;;5031636;28;20103;-91
2022/01/25 05:53:16;;;;;;;;;;;11.30;59.20;;;;;;5029773;27;19925;-91
2022/01/25 05:55:42;;;;;;;;;;;11.20;59.50;;;;;;5039452;27;19920;-92
2022/01/25 05:58:07;;;;;;;;;;;11.20;59.50;;;;;;5028937;28;19931;-92
2022/01/25 06:00:33;;;;;;;;;;;11.20;59.50;;;;;;5025926;28;20383;-91
2022/01/25 06:02:58;;;;;;;;;;;11.20;59.10;;;;;;5057323;28;19925;-92
2022/01/25 06:05:25;;;;;;;;;;;11.10;59.10;;;;;;5040014;28;19987;-92
2022/01/25 06:07:50;;;;;;;;;;;11.00;58.70;;;;;;5026012;28;19948;-91
2022/01/25 06:10:16;;;;;;;;;;;11.00;58.90;;;;;;5026834;28;19913;-92
2022/01/25 06:12:44;;;;;;;;;;;10.90;58.70;;;;;;5024541;28;19955;-91
2022/01/25 06:15:10;;;;;;;;;;;10.90;59.30;;;;;;5027359;28;19932;-92
2022/01/25 06:17:36;;;;;;;;;;;10.90;59.40;;;;;;5022849;28;20394;-92
2022/01/25 06:20:01;;;;;;;;;;;10.90;59.40;;;;;;5042277;28;19912;-92
2022/01/25 06:22:26;;;;;;;;;;;11.00;59.20;;;;;;5025644;28;19921;-91
2022/01/25 06:24:53;;;;;;;;;;;10.90;59.20;;;;;;5026671;28;19913;-92
2022/01/25 06:27:18;;;;;;;;;;;10.90;59.10;;;;;;5024030;28;20008;-92
2022/01/25 06:29:44;;;;;;;;;;;10.80;58.80;;;;;;5025314;28;19948;-91
2022/01/25 06:32:10;;;;;;;;;;;10.80;59.10;;;;;;5028624;28;19917;-92
2022/01/25 06:34:35;;;;;;;;;;;10.80;58.90;;;;;;5023914;28;19913;-91
2022/01/25 06:37:01;;;;;;;;;;;10.80;58.80;;;;;;5039704;28;19962;-91
2022/01/25 06:39:27;;;;;;;;;;;10.80;59.00;;;;;;5027975;28;19921;-91
2022/01/25 06:41:52;;;;;;;;;;;10.80;58.90;;;;;;5026771;28;19920;-91
2022/01/25 06:44:18;;;;;;;;;;;10.80;58.80;;;;;;5023788;28;19925;-90
2022/01/25 06:46:45;;;;;;;;;;;10.80;58.80;;;;;;5020437;28;19913;-90
2022/01/25 06:49:12;;;;;;;;;;;10.70;58.80;;;;;;5016785;28;20375;-90
2022/01/25 06:51:37;;;;;;;;;;;10.70;59.00;;;;;;5019993;28;19913;-90
2022/01/25 06:54:03;;;;;;;;;;;10.80;59.40;;;;;;5048259;27;20283;-90
2022/01/25 06:56:28;;;;;;;;;;;10.70;59.20;;;;;;5050582;28;20340;-90
2022/01/25 06:58:54;;;;;;;;;;;10.80;58.80;;;;;;5018377;28;20298;-90
2022/01/25 07:01:19;;;;;;;;;;;10.70;58.50;;;;;;5037431;28;19910;-90
2022/01/25 07:03:45;;;;;;;;;;;10.70;58.60;;;;;;5034072;28;20030;-90
2022/01/25 07:06:10;;;;;;;;;;;10.70;58.50;;;;;;5025213;28;19913;-90
2022/01/25 07:08:36;;;;;;;;;;;10.70;58.80;;;;;;5037209;28;19917;-90
2022/01/25 07:11:01;;;;;;;;;;;10.70;59.30;;;;;;5016493;28;19994;-90
2022/01/25 07:13:27;;;;;;;;;;;10.70;58.90;;;;;;5035526;28;19924;-90
2022/01/25 07:15:52;;;;;;;;;;;10.70;58.90;;;;;;5030858;28;19909;-90
2022/01/25 07:18:18;;;;;;;;;;;10.70;59.10;;;;;;5042594;28;20397;-90
2022/01/25 07:20:44;;;;;;;;;;;10.70;59.10;;;;;;5017971;28;19913;-90
2022/01/25 07:23:09;;;;;;;;;;;10.70;59.20;;;;;;5023463;28;20279;-91
2022/01/25 07:25:35;;;;;;;;;;;10.70;58.50;;;;;;5051186;28;19957;-90
2022/01/25 07:28:00;;;;;;;;;;;10.70;58.10;;;;;;5015867;28;19928;-90
2022/01/25 07:30:26;;;;;;;;;;;10.70;58.10;;;;;;5017061;28;19909;-90
2022/01/25 07:32:51;;;;;;;;;;;10.60;57.70;;;;;;5044548;28;19921;-90
2022/01/25 07:35:17;;;;;;;;;;;10.50;58.20;;;;;;5050735;28;19959;-90
2022/01/25 07:37:42;;;;;;;;;;;10.60;58.70;;;;;;5035557;28;20352;-90
2022/01/25 07:40:08;;;;;;;;;;;10.60;59.00;;;;;;5107289;28;19974;-89
2022/01/25 07:42:36;;;;;;;;;;;10.60;58.50;;;;;;5023247;28;19913;-90
2022/01/25 07:45:07;;;;;;;;;;;10.60;58.50;;;;;;5018390;28;19982;-90
2022/01/25 07:47:33;;;;;;;;;;;10.60;58.30;;;;;;4996460;28;20257;-89
2022/01/25 07:49:58;;;;;;;;;;;10.60;58.60;;;;;;5012979;28;19918;-90
2022/01/25 07:52:24;;;;;;;;;;;10.60;58.70;;;;;;5030223;28;19999;-90
2022/01/25 07:54:49;;;;;;;;;;;10.60;58.70;;;;;;5026228;28;19944;-90
2022/01/25 07:57:15;;;;;;;;;;;10.60;58.70;;;;;;5089143;28;19938;-90
2022/01/25 07:59:40;;;;;;;;;;;10.60;58.70;;;;;;5020298;28;19925;-90
2022/01/25 08:02:06;;;;;;;;;;;10.60;58.30;;;;;;5045450;28;19913;-90
2022/01/25 08:04:31;;;;;;;;;;;10.60;58.00;;;;;;5026219;28;19924;-90
2022/01/25 08:06:59;;;;;;;;;;;10.50;58.30;;;;;;5052994;28;19915;-89
2022/01/25 08:09:24;;;;;;;;;;;10.50;58.60;;;;;;5033196;28;19950;-90
2022/01/25 08:11:50;;;;;;;;;;;10.50;58.30;;;;;;5066236;28;19925;-90
2022/01/25 08:14:19;;;;;;;;;;;10.50;58.00;;;;;;5074225;27;19990;-90
2022/01/25 08:16:46;;;;;;;;;;;10.50;57.80;;;;;;5036676;28;19969;-90
2022/01/25 08:19:12;;;;;;;;;;;10.50;58.60;;;;;;5047153;28;19913;-90
2022/01/25 08:21:40;;;;;;;;;;;10.50;59.00;;;;;;5032155;28;19909;-91
2022/01/25 08:24:05;;;;;;;;;;;10.60;59.20;;;;;;5038859;28;19909;-90
2022/01/25 08:26:31;;;;;;;;;;;10.60;59.20;;;;;;5032415;28;19913;-90
2022/01/25 08:28:57;;;;;;;;;;;10.70;59.50;;;;;;5033086;28;19909;-90
2022/01/25 08:31:22;;;;;;;;;;;10.70;58.90;;;;;;5034032;28;19921;-91
2022/01/25 08:33:48;;;;;;;;;;;10.70;58.90;;;;;;5047712;28;19914;-90
2022/01/25 08:36:13;;;;;;;;;;;10.70;58.50;;;;;;5043904;28;19928;-90
2022/01/25 08:38:39;;;;;;;;;;;10.70;58.20;;;;;;5031318;28;19916;-90
2022/01/25 08:41:06;;;;;;;;;;;10.70;58.40;;;;;;5086546;27;19980;-89
2022/01/25 08:43:33;;;;;;;;;;;10.70;58.40;;;;;;5129136;27;19916;-90
2022/01/25 08:45:59;;;;;;;;;;;10.70;58.50;;;;;;5083739;28;19921;-91
2022/01/25 08:48:24;;;;;;;;;;;10.70;58.60;;;;;;5035967;28;19909;-91
2022/01/25 08:50:50;;;;;;;;;;;10.70;58.50;;;;;;5036320;28;20269;-91
2022/01/25 08:53:15;;;;;;;;;;;10.70;59.20;;;;;;5043047;28;20368;-91
2022/01/25 08:55:40;;;;;;;;;;;10.80;58.80;;;;;;5028896;28;20334;-91
2022/01/25 08:58:06;;;;;;;;;;;10.80;58.90;;;;;;5056328;28;19927;-91
2022/01/25 09:00:31;;;;;;;;;;;10.80;58.50;;;;;;5034235;28;19917;-91
2022/01/25 09:02:58;;;;;;;;;;;10.80;58.50;;;;;;5019697;28;19917;-90
2022/01/25 09:05:23;;;;;;;;;;;10.90;59.00;;;;;;5027294;28;20577;-91
2022/01/25 09:07:49;;;;;;;;;;;10.90;59.00;;;;;;5037252;28;19909;-91
2022/01/25 09:10:15;;;;;;;;;;;10.90;59.20;;;;;;5044484;27;20264;-91
2022/01/25 09:12:40;;;;;;;;;;;10.90;59.00;;;;;;5054999;28;19917;-91
2022/01/25 09:15:05;;;;;;;;;;;10.90;58.60;;;;;;5062885;27;19921;-91
2022/01/25 09:17:32;;;;;;;;;;;11.00;59.30;;;;;;5029423;28;20566;-91
2022/01/25 09:19:57;;;;;;;;;;;11.00;59.50;;;;;;5030357;28;19916;-91
2022/01/25 09:22:22;;;;;;;;;;;11.10;59.40;;;;;;5046340;28;20378;-92
2022/01/25 09:24:49;;;;;;;;;;;11.10;59.10;;;;;;5034297;28;20365;-91
2022/01/25 09:27:15;;;;;;;;;;;11.10;59.30;;;;;;5022833;28;19913;-91
2022/01/25 09:29:40;;;;;;;;;;;11.20;59.00;;;;;;5058250;27;20281;-92
2022/01/25 09:32:06;;;;;;;;;;;11.20;59.40;;;;;;5036735;28;19942;-91
2022/01/25 09:34:31;;;;;;;;;;;11.20;59.60;;;;;;5037192;28;19921;-90
2022/01/25 09:36:57;;;;;;;;;;;11.20;59.50;;;;;;5018141;28;19995;-91
2022/01/25 09:39:25;;;;;;;;;;;11.30;59.50;;;;;;5031677;28;20425;-92
2022/01/25 09:41:52;;;;;;;;;;;11.30;59.30;;;;;;5089854;28;19917;-91
2022/01/25 09:44:17;;;;;;;;;;;11.30;59.10;;;;;;5024054;28;19935;-91
2022/01/25 09:46:43;;;;;;;;;;;11.30;58.50;;;;;;5021647;28;19909;-91
2022/01/25 09:49:09;;;;;;;;;;;11.40;59.20;;;;;;5021890;28;19909;-91
2022/01/25 09:51:35;;;;;;;;;;;11.40;59.00;;;;;;5012745;28;19909;-92
2022/01/25 09:54:00;;;;;;;;;;;11.40;59.00;;;;;;5034898;28;19920;-91
2022/01/25 09:56:26;;;;;;;;;;;11.40;58.70;;;;;;5027775;28;19917;-92
2022/01/25 09:58:51;;;;;;;;;;;11.40;58.90;;;;;;5026503;28;19929;-91
2022/01/25 10:01:24;;;;;;;;;;;11.40;59.10;;;;;;5038650;28;19917;-91
2022/01/25 10:03:49;;;;;;;;;;;11.40;59.10;;;;;;5074370;27;20350;-91
2022/01/25 10:06:17;;;;;;;;;;;11.50;59.00;;;;;;5063553;27;19931;-91
2022/01/25 10:08:43;;;;;;;;;;;11.50;59.10;;;;;;5032113;28;20288;-92
2022/01/25 10:11:10;;;;;;;;;;;11.50;59.20;;;;;;5035024;28;19917;-92
2022/01/25 10:13:40;;;;;;;;;;;11.50;59.50;;;;;;5027385;28;19996;-91
2022/01/25 10:16:10;;;;;;;;;;;11.60;59.20;;;;;;5022727;28;19925;-91
2022/01/25 10:18:59;;;;;;;;;;;11.60;58.40;;;;;;5030014;28;20387;-92
2022/01/25 10:21:25;;;;;;;;;;;11.60;59.00;;;;;;5093063;27;19915;-91
2022/01/25 10:24:03;;;;;;;;;;;11.70;59.50;;;;;;5122354;27;19911;-92
2022/01/25 10:26:31;;;;;;;;;;;11.70;59.10;;;;;;5069014;28;19921;-92
2022/01/25 10:28:56;;;;;;;;;;;11.70;59.20;;;;;;5012835;28;19913;-90
2022/01/25 10:31:33;;;;;;;;;;;11.80;59.50;;;;;;5099830;27;20056;-91
2022/01/25 10:33:58;;;;;;;;;;;11.80;59.50;;;;;;5032891;28;20388;-91
2022/01/25 10:36:25;;;;;;;;;;;11.80;59.60;;;;;;5041306;28;19974;-93
2022/01/25 10:38:53;;;;;;;;;;;11.80;58.80;;;;;;5017247;28;19977;-91
2022/01/25 10:41:19;;;;;;;;;;;11.80;58.70;;;;;;5019571;28;19916;-90
2022/01/25 10:43:46;;;;;;;;;;;11.80;59.10;;;;;;5033212;28;19909;-92
2022/01/25 10:46:17;;;;;;;;;;;11.90;59.50;;;;;;5049940;27;20373;-91
2022/01/25 10:48:45;;;;;;;;;;;11.90;59.00;;;;;;5120087;27;19926;-92
2022/01/25 10:51:30;;;;;;;;;;;11.90;59.00;;;;;;5077760;28;20327;-92
2022/01/25 10:54:00;;;;;;;;;;;12.00;59.30;;;;;;5023440;28;19917;-90
2022/01/25 10:56:48;;;;;;;;;;;12.00;58.10;;;;;;5071735;28;19927;-91
2022/01/25 10:59:20;;;;;;;;;;;12.00;58.70;;;;;;5065803;28;19913;-89
2022/01/25 11:01:56;;;;;;;;;;;12.00;58.80;;;;;;5073652;28;20370;-90
2022/01/25 11:04:28;;;;;;;;;;;12.00;58.90;;;;;;5070158;28;19952;-91
2022/01/25 11:06:56;;;;;;;;;;;12.10;59.10;;;;;;5064806;28;19913;-90
2022/01/25 11:09:25;;;;;;;;;;;12.10;59.30;;;;;;5069865;28;19940;-90
2022/01/25 11:11:53;;;;;;;;;;;12.10;58.90;;;;;;5069006;28;20276;-90
2022/01/25 11:17:03;;;;;;;;;;;12.20;57.80;;;;;;5051104;28;20567;-90
2022/01/25 11:19:33;;;;;;;;;;;12.10;57.80;;;;;;5052156;28;19917;-92
2022/01/25 11:22:01;;;;;;;;;;;12.10;58.20;;;;;;5048661;28;19920;-91
2022/01/25 11:24:31;;;;;;;;;;;12.10;58.50;;;;;;5046964;28;19917;-89
2022/01/25 11:27:01;;;;;;;;;;;12.10;57.70;;;;;;5052163;28;19913;-90
2022/01/25 11:29:27;;;;;;;;;;;12.10;57.60;;;;;;5047089;28;20012;-90
2022/01/25 11:31:57;;;;;;;;;;;12.00;57.70;;;;;;5049438;28;19917;-89
2022/01/25 11:34:25;;;;;;;;;;;12.10;57.90;;;;;;5046774;28;19921;-89
2022/01/25 11:37:02;;;;;;;;;;;12.00;57.70;;;;;;5052798;28;19984;-90
2022/01/25 11:39:28;;;;;;;;;;;12.00;57.50;;;;;;5050452;28;19971;-90
2022/01/25 11:42:02;;;;;;;;;;;12.10;57.80;;;;;;5047871;28;20030;-89
2022/01/25 11:44:31;;;;;;;;;;;12.10;58.30;;;;;;5050392;28;19947;-89
2022/01/25 11:47:10;;;;;;;;;;;12.00;58.10;;;;;;5051818;28;19913;-90
2022/01/25 11:49:53;;;;;;;;;;;12.10;58.80;;;;;;5050524;28;19936;-90
2022/01/25 11:52:20;;;;;;;;;;;12.10;59.00;;;;;;5053591;28;19923;-91
2022/01/25 11:54:49;;;;;;;;;;;12.10;59.10;;;;;;5049520;28;19929;-90
2022/01/25 11:57:16;;;;;;;;;;;12.20;58.90;;;;;;5053329;28;19909;-89
2022/01/25 11:59:54;;;;;;;;;;;12.20;59.00;;;;;;5048405;28;20367;-90
2022/01/25 12:02:40;;;;;;;;;;;12.30;58.80;;;;;;5047146;28;19920;-89
2022/01/25 12:05:08;;;;;;;;;;;12.20;58.70;;;;;;5031234;28;19913;-89
2022/01/25 12:07:40;;;;;;;;;;;12.30;58.50;;;;;;5043463;28;20031;-89
2022/01/25 12:10:24;;;;;;;;;;;12.30;59.00;;;;;;5037440;28;19917;-89
2022/01/25 12:13:08;;;;;;;;;;;12.30;58.50;;;;;;5040408;28;20024;-89
2022/01/25 12:15:34;;;;;;;;;;;12.30;58.10;;;;;;5043117;28;19921;-89
2022/01/25 12:18:02;;;;;;;;;;;12.30;58.40;;;;;;5023533;28;20391;-89
2022/01/25 12:20:31;;;;;;;;;;;12.30;58.60;;;;;;5033873;28;19967;-90
2022/01/25 12:23:10;;;;;;;;;;;12.30;59.00;;;;;;5026161;28;19991;-89
2022/01/25 12:25:52;;;;;;;;;;;12.30;59.10;;;;;;5029999;28;20011;-90
2022/01/25 12:28:27;;;;;;;;;;;12.40;59.20;;;;;;5017521;28;19967;-91
2022/01/25 12:31:01;;;;;;;;;;;12.40;59.20;;;;;;5031182;28;19909;-90
2022/01/25 12:33:27;;;;;;;;;;;12.30;57.90;;;;;;5030503;28;19917;-90
2022/01/25 12:35:59;;;;;;;;;;;12.30;57.50;;;;;;5027691;28;19916;-90
2022/01/25 12:38:25;;;;;;;;;;;12.30;57.20;;;;;;5027046;28;19922;-90
2022/01/25 12:46:08;;;;;;;;;;;12.20;58.00;;;;;;5010202;28;19930;-90
2022/01/25 12:48:40;;;;;;;;;;;12.20;57.80;;;;;;4987685;28;19921;-91
2022/01/25 12:51:09;;;;;;;;;;;12.20;57.30;;;;;;4993826;28;19926;-90
2022/01/25 12:53:38;;;;;;;;;;;12.10;56.90;;;;;;4981951;28;19918;-91
2022/01/25 12:56:14;;;;;;;;;;;12.00;56.80;;;;;;4992278;28;19928;-91
2022/01/25 12:58:40;;;;;;;;;;;12.00;57.50;;;;;;4985054;28;19921;-90
2022/01/25 13:01:10;;;;;;;;;;;12.00;56.90;;;;;;5007032;28;19909;-91
2022/01/25 13:03:47;;;;;;;;;;;12.00;57.30;;;;;;4982999;28;19918;-91
2022/01/25 13:06:18;;;;;;;;;;;11.90;57.20;;;;;;4987676;28;19917;-90
2022/01/25 13:08:57;;;;;;;;;;;11.90;58.20;;;;;;4988790;28;20397;-90
2022/01/25 13:17:07;;;;;;;;;;;11.90;57.90;;;;;;4992759;28;20285;-90
2022/01/25 13:19:41;;;;;;;;;;;11.90;58.70;;;;;;4979371;28;20621;-91
2022/01/25 13:22:10;;;;;;;;;;;11.90;59.00;;;;;;4977822;28;19922;-90
2022/01/25 13:24:46;;;;;;;;;;;12.00;59.30;;;;;;4974097;28;19918;-91
2022/01/25 13:32:24;;;;;;;;;;;12.10;58.90;;;;;;5051473;28;20422;-90
2022/01/25 13:34:59;;;;;;;;;;;12.20;59.20;;;;;;5054967;28;19958;-90
2022/01/25 13:37:26;;;;;;;;;;;12.20;59.20;;;;;;5058753;28;19913;-91
2022/01/25 13:39:53;;;;;;;;;;;12.20;58.40;;;;;;5055904;28;19912;-91
2022/01/25 13:42:31;;;;;;;;;;;12.20;58.00;;;;;;5050701;28;19917;-90
2022/01/25 13:48:04;;;;;;;;;;;12.00;56.90;;;;;;5057783;28;20049;-90
2022/01/25 13:50:31;;;;;;;;;;;11.90;58.20;;;;;;5057281;28;19916;-90
2022/01/25 13:52:57;;;;;;;;;;;11.90;58.20;;;;;;5044339;28;19924;-91
2022/01/25 13:55:23;;;;;;;;;;;11.90;58.70;;;;;;5057017;28;19921;-90
2022/01/25 13:57:49;;;;;;;;;;;12.00;58.20;;;;;;5060781;28;19936;-90
2022/01/25 14:00:16;;;;;;;;;;;12.00;58.90;;;;;;5044355;28;19913;-90
2022/01/25 14:02:42;;;;;;;;;;;12.00;59.10;;;;;;5051877;28;19932;-90
2022/01/25 14:05:07;;;;;;;;;;;12.00;59.00;;;;;;5055258;28;19913;-90
2022/01/25 14:07:39;;;;;;;;;;;12.00;58.70;;;;;;5065160;28;19916;-91
2022/01/25 14:10:12;;;;;;;;;;;12.00;58.30;;;;;;5059068;28;19909;-90
2022/01/25 14:25:48;;;;;;;;;;;12.00;59.20;;;;;;5117751;22;19932;-91
2022/01/25 14:28:16;;;;;;;;;;;12.10;59.10;;;;;;5115096;22;20135;-91
2022/01/25 14:30:44;;;;;;;;;;;12.00;58.00;;;;;;5071825;22;19932;-91
2022/01/25 14:35:48;;;;;;;;;;;11.90;57.90;;;;;;5027524;23;19932;-90
2022/01/25 14:38:21;;;;;;;;;;;11.90;58.40;;;;;;4945071;22;20399;-91
2022/01/25 14:43:23;;;;;;;;;;;11.90;58.60;;;;;;5076332;28;19986;-91
2022/01/25 14:45:58;;;;;;;;;;;11.90;58.20;;;;;;5066337;28;19920;-91
2022/01/25 14:48:33;;;;;;;;;;;11.80;58.10;;;;;;5053255;28;19920;-91
2022/01/25 14:51:00;;;;;;;;;;;11.80;58.40;;;;;;5053723;28;19921;-92
2022/01/25 14:53:26;;;;;;;;;;;11.70;58.90;;;;;;5073957;28;20236;-91
2022/01/25 14:55:55;;;;;;;;;;;11.80;59.00;;;;;;5094930;28;19935;-91
2022/01/25 15:01:15;;;;;;;;;;;11.80;59.10;;;;;;5044614;28;19985;-91
2022/01/25 15:03:44;;;;;;;;;;;11.80;58.70;;;;;;5058625;28;19913;-91
2022/01/25 15:06:14;;;;;;;;;;;11.70;59.00;;;;;;5082463;28;19916;-90
2022/01/25 15:08:57;;;;;;;;;;;11.80;59.00;;;;;;5070521;28;19912;-91
2022/01/25 15:11:29;;;;;;;;;;;11.80;59.20;;;;;;5138935;22;19959;-91
2022/01/25 15:14:00;;;;;;;;;;;11.80;59.30;;;;;;5059512;28;19920;-90
2022/01/25 15:16:26;;;;;;;;;;;11.80;59.10;;;;;;5065121;28;20400;-91
2022/01/25 15:18:53;;;;;;;;;;;11.80;59.10;;;;;;5064406;28;19912;-90
2022/01/25 15:21:21;;;;;;;;;;;11.80;59.00;;;;;;5071103;28;19920;-90
2022/01/25 15:23:54;;;;;;;;;;;11.70;58.00;;;;;;5062405;23;20732;-91
2022/01/25 15:26:45;;;;;;;;;;;11.70;57.60;;;;;;5058210;28;19908;-92
2022/01/25 15:29:21;;;;;;;;;;;11.60;57.70;;;;;;5044282;28;19975;-89
2022/01/25 15:31:47;;;;;;;;;;;11.50;58.00;;;;;;5051361;28;19942;-90
2022/01/25 15:34:13;;;;;;;;;;;11.40;58.20;;;;;;5048711;28;19928;-90
2022/01/25 15:36:40;;;;;;;;;;;11.40;58.70;;;;;;5062709;23;19959;-90
2022/01/25 15:39:20;;;;;;;;;;;11.40;58.80;;;;;;5043498;28;19916;-90
2022/01/25 15:42:23;;;;;;;;;;;11.40;58.60;;;;;;5231305;22;19928;-90
2022/01/25 15:47:38;;;;;;;;;;;11.40;58.10;;;;;;5047715;22;19925;-90
2022/01/25 15:50:04;;;;;;;;;;;11.30;58.70;;;;;;5005088;28;20353;-91
2022/01/25 15:52:30;;;;;;;;;;;11.30;58.40;;;;;;5020185;28;19925;-91
2022/01/25 15:54:55;;;;;;;;;;;11.30;58.20;;;;;;5005747;28;19924;-91
2022/01/25 15:57:21;;;;;;;;;;;11.30;58.40;;;;;;5064315;28;19931;-91
2022/01/25 15:59:46;;;;;;;;;;;11.20;58.60;;;;;;5047182;28;19920;-91
2022/01/25 16:02:14;;;;;;;;;;;11.20;58.90;;;;;;5040125;28;20491;-90
2022/01/25 16:04:43;;;;;;;;;;;11.20;59.00;;;;;;5046622;28;19952;-92
2022/01/25 16:07:09;;;;;;;;;;;11.20;59.00;;;;;;5042822;28;19947;-91
2022/01/25 16:09:38;;;;;;;;;;;11.20;59.30;;;;;;5059276;28;19912;-92
2022/01/25 16:12:03;;;;;;;;;;;11.20;58.90;;;;;;5052246;28;20339;-91
2022/01/25 16:14:29;;;;;;;;;;;11.20;59.10;;;;;;5060346;28;19975;-91
2022/01/25 16:16:54;;;;;;;;;;;11.20;59.20;;;;;;5042250;28;19959;-91
2022/01/25 16:19:20;;;;;;;;;;;11.20;58.90;;;;;;5060037;28;19908;-92
2022/01/25 16:21:46;;;;;;;;;;;11.20;58.80;;;;;;5034184;28;20026;-91
2022/01/25 16:24:11;;;;;;;;;;;11.20;58.80;;;;;;5053715;28;20018;-91
2022/01/25 16:26:37;;;;;;;;;;;11.20;58.60;;;;;;5059596;28;20370;-90
2022/01/25 16:29:03;;;;;;;;;;;11.20;58.80;;;;;;5032488;28;19914;-92
2022/01/25 16:31:31;;;;;;;;;;;11.20;58.90;;;;;;5036654;28;19923;-91
2022/01/25 16:33:58;;;;;;;;;;;11.20;59.10;;;;;;5040921;28;19940;-90
2022/01/25 16:36:23;;;;;;;;;;;11.20;59.10;;;;;;5025206;28;19928;-91
2022/01/25 16:38:49;;;;;;;;;;;11.20;59.10;;;;;;5059037;28;19916;-91